Time;durP1;ratioP1;P1;durP2;ratioP2;P2;SDS_P1;SDS_P2;PMS_P1;PMS_P2;Temp;Humidity;BMP_temperature;BMP_pressure;BME280_temperature;BME280_humidity;BME280_pressure;Samples;Min_cycle;Max_cycle;Signal;HPM_P1;HPM_P2
2024/01/25 00:00:16;;;;;;;11.15;3.38;;;;;;;18.85;42.60;102722.88;4949809;28;20035;-71
2024/01/25 00:02:41;;;;;;;14.23;4.05;;;;;;;18.82;42.51;102724.81;4948056;28;20082;-72
2024/01/25 00:05:07;;;;;;;11.50;3.30;;;;;;;18.87;42.52;102750.97;4949907;29;20031;-71
2024/01/25 00:07:32;;;;;;;9.45;3.05;;;;;;;18.70;42.55;102723.66;4949539;29;20101;-72
2024/01/25 00:09:58;;;;;;;9.50;2.97;;;;;;;18.75;42.40;102720.78;4949561;29;20031;-72
2024/01/25 00:12:23;;;;;;;11.60;3.88;;;;;;;18.70;42.50;102710.47;4949685;29;20042;-70
2024/01/25 00:14:48;;;;;;;12.32;3.33;;;;;;;18.68;42.58;102715.81;4949294;29;20066;-68
2024/01/25 00:17:14;;;;;;;11.90;3.30;;;;;;;18.78;42.41;102724.09;4949416;29;20031;-72
2024/01/25 00:19:40;;;;;;;12.63;3.20;;;;;;;18.59;42.48;102700.47;4949108;29;20425;-70
2024/01/25 00:22:06;;;;;;;10.55;3.55;;;;;;;18.77;42.41;102732.09;4949408;29;20176;-71
2024/01/25 00:24:33;;;;;;;10.10;3.17;;;;;;;18.64;42.28;102702.88;4949588;28;20053;-70
2024/01/25 00:26:58;;;;;;;11.43;3.28;;;;;;;18.76;42.15;102731.25;4948623;28;20078;-71
2024/01/25 00:29:24;;;;;;;11.25;3.20;;;;;;;18.60;42.26;102720.66;4948653;28;20436;-70
2024/01/25 00:31:49;;;;;;;10.20;3.40;;;;;;;18.52;42.12;102712.31;4948659;28;20027;-73
2024/01/25 00:34:15;;;;;;;12.68;3.38;;;;;;;18.61;42.30;102721.50;4948317;29;20076;-72
2024/01/25 00:36:40;;;;;;;11.85;3.60;;;;;;;18.69;42.39;102727.22;4948657;28;20067;-72
2024/01/25 00:39:06;;;;;;;13.27;3.38;;;;;;;18.58;42.34;102712.00;4947439;29;20039;-71
2024/01/25 00:41:32;;;;;;;10.25;3.20;;;;;;;18.56;42.07;102711.19;4946892;28;20629;-71
2024/01/25 00:43:58;;;;;;;11.45;3.30;;;;;;;18.58;42.06;102712.00;4948889;29;20414;-70
2024/01/25 00:46:23;;;;;;;9.57;3.20;;;;;;;18.58;42.22;102712.00;4948939;28;20043;-69
2024/01/25 00:48:49;;;;;;;12.90;3.40;;;;;;;18.65;41.92;102726.56;4948869;28;20041;-70
2024/01/25 00:51:20;;;;;;;12.38;3.78;;;;;;;18.66;42.00;102736.19;4948652;28;20452;-69
2024/01/25 00:53:46;;;;;;;11.85;3.70;;;;;;;18.53;41.90;102713.16;4948999;28;20035;-71
2024/01/25 00:56:12;;;;;;;10.10;3.25;;;;;;;18.64;42.11;102735.44;4948782;29;20392;-70
2024/01/25 00:58:37;;;;;;;12.35;3.20;;;;;;;18.61;42.15;102740.88;4948858;28;20027;-71
2024/01/25 01:01:03;;;;;;;12.65;3.33;;;;;;;18.62;42.28;102744.34;4949355;28;20039;-71
2024/01/25 01:03:28;;;;;;;10.15;3.63;;;;;;;18.49;42.11;102729.16;4946696;29;20467;-71
2024/01/25 01:05:54;;;;;;;11.88;3.28;;;;;;;18.47;42.03;102730.19;4948726;28;20035;-69
2024/01/25 01:08:20;;;;;;;10.07;2.90;;;;;;;18.49;42.01;102726.53;4948732;28;20532;-70
2024/01/25 01:10:46;;;;;;;12.48;3.33;;;;;;;18.58;41.94;102740.16;4948680;29;20089;-70
2024/01/25 01:13:11;;;;;;;11.90;3.17;;;;;;;18.56;42.03;102736.75;4948775;29;20503;-70
2024/01/25 01:15:37;;;;;;;8.70;3.15;;;;;;;18.56;42.03;102749.97;4948702;29;20035;-70
2024/01/25 01:18:02;;;;;;;11.07;3.08;;;;;;;18.42;41.90;102721.66;4948593;29;20031;-70
2024/01/25 01:20:27;;;;;;;10.10;2.92;;;;;;;18.43;41.85;102726.84;4948939;28;20472;-71
2024/01/25 01:22:53;;;;;;;11.40;3.00;;;;;;;18.53;41.82;102742.19;4948486;29;20133;-69
2024/01/25 01:25:18;;;;;;;10.13;3.15;;;;;;;18.42;41.86;102737.47;4948457;29;20024;-69
2024/01/25 01:27:44;;;;;;;12.77;3.85;;;;;;;18.51;42.00;102752.00;4947504;28;20070;-71
2024/01/25 01:30:10;;;;;;;11.73;3.20;;;;;;;18.50;41.91;102761.72;4947547;29;20171;-69
2024/01/25 01:32:35;;;;;;;12.27;3.60;;;;;;;18.52;42.21;102767.75;4947805;29;20042;-70
2024/01/25 01:35:00;;;;;;;11.43;2.95;;;;;;;18.49;41.72;102754.72;4947890;29;20055;-70
2024/01/25 01:37:25;;;;;;;12.30;3.85;;;;;;;18.51;41.86;102758.13;4948169;29;20071;-70
2024/01/25 01:39:52;;;;;;;11.43;3.60;;;;;;;18.48;41.85;102767.06;4948152;29;20125;-72
2024/01/25 01:42:17;;;;;;;7.75;2.53;;;;;;;18.38;41.80;102751.78;4948167;29;20281;-70
2024/01/25 01:44:43;;;;;;;12.07;2.90;;;;;;;18.40;41.96;102748.13;4948518;28;20039;-70
2024/01/25 01:47:08;;;;;;;11.77;3.38;;;;;;;18.37;41.61;102742.16;4947968;29;20035;-70
2024/01/25 01:49:34;;;;;;;12.15;3.95;;;;;;;18.37;41.54;102755.34;4948357;29;20062;-72
2024/01/25 01:52:00;;;;;;;10.85;3.10;;;;;;;18.43;41.74;102771.72;4948117;29;20030;-72
2024/01/25 01:54:25;;;;;;;10.40;3.05;;;;;;;18.39;41.77;102764.91;4948255;28;20377;-70
2024/01/25 01:56:51;;;;;;;12.65;3.15;;;;;;;18.28;41.86;102747.00;4947682;29;20042;-70
2024/01/25 01:59:17;;;;;;;13.48;3.35;;;;;;;18.34;41.56;102768.72;4947595;28;20031;-70
2024/01/25 02:01:42;;;;;;;12.60;3.80;;;;;;;18.43;41.68;102792.00;4946128;29;20024;-70
2024/01/25 02:04:08;;;;;;;10.32;3.58;;;;;;;18.39;41.75;102795.72;4946354;29;20118;-72
2024/01/25 02:06:33;;;;;;;12.15;3.10;;;;;;;18.38;41.65;102788.75;4947669;29;20534;-71
2024/01/25 02:09:00;;;;;;;10.05;3.30;;;;;;;18.28;41.51;102778.66;4947964;28;20027;-70
2024/01/25 02:11:26;;;;;;;10.75;2.70;;;;;;;18.35;41.52;102792.38;4947648;28;20035;-70
2024/01/25 02:13:51;;;;;;;13.38;3.72;;;;;;;18.31;41.57;102786.44;4948312;28;20037;-70
2024/01/25 02:16:17;;;;;;;13.63;3.63;;;;;;;18.37;41.56;102811.63;4948021;29;20384;-71
2024/01/25 02:18:43;;;;;;;10.50;2.65;;;;;;;18.33;41.41;102809.25;4948214;28;20122;-70
2024/01/25 02:21:08;;;;;;;10.48;3.13;;;;;;;18.28;41.43;102809.50;4948732;28;20488;-71
2024/01/25 02:23:34;;;;;;;13.38;3.78;;;;;;;18.22;41.39;102809.81;4951472;29;20114;-73
2024/01/25 02:25:59;;;;;;;13.23;3.80;;;;;;;18.21;41.51;102803.66;4951889;29;20042;-70
2024/01/25 02:28:24;;;;;;;11.35;3.03;;;;;;;18.25;41.47;102814.91;4948172;29;20027;-71
2024/01/25 02:30:50;;;;;;;10.55;3.33;;;;;;;18.30;41.27;102826.09;4951042;28;20035;-71
2024/01/25 02:33:15;;;;;;;10.23;3.20;;;;;;;18.23;41.18;102820.28;4951669;29;20480;-70
2024/01/25 02:35:40;;;;;;;10.25;3.55;;;;;;;18.30;41.19;102840.13;4951050;29;20102;-69
2024/01/25 02:38:06;;;;;;;12.18;3.60;;;;;;;18.27;41.35;102835.00;4951534;29;20039;-70
2024/01/25 02:40:31;;;;;;;10.80;3.20;;;;;;;18.16;41.28;102815.38;4951326;29;20061;-71
2024/01/25 02:42:56;;;;;;;11.98;3.67;;;;;;;18.23;41.15;102829.97;4950884;29;20464;-72
2024/01/25 02:45:23;;;;;;;11.52;3.50;;;;;;;18.17;41.15;102817.94;4950809;29;20038;-72
2024/01/25 02:47:48;;;;;;;10.80;3.28;;;;;;;18.22;41.27;102830.91;4950695;29;20058;-72
2024/01/25 02:50:14;;;;;;;11.73;3.40;;;;;;;18.27;41.17;102842.94;4949476;28;20080;-70
2024/01/25 02:52:39;;;;;;;11.90;3.03;;;;;;;18.23;40.93;102830.84;4950528;28;20050;-71
2024/01/25 02:55:04;;;;;;;12.32;3.45;;;;;;;18.26;41.01;102827.16;4950656;29;20058;-72
2024/01/25 02:57:31;;;;;;;10.63;3.10;;;;;;;18.21;41.01;102824.75;4950839;28;20086;-71
2024/01/25 02:59:56;;;;;;;11.10;2.78;;;;;;;18.21;40.91;102832.69;4951112;29;20090;-73
2024/01/25 03:02:22;;;;;;;11.85;4.32;;;;;;;18.14;41.29;102815.47;4949070;28;20019;-70
2024/01/25 03:04:48;;;;;;;10.15;2.92;;;;;;;18.20;41.05;102823.06;4950918;28;20035;-71
2024/01/25 03:07:13;;;;;;;12.05;3.58;;;;;;;18.10;40.84;102811.25;4950682;29;20126;-69
2024/01/25 03:09:38;;;;;;;11.05;3.25;;;;;;;18.17;40.96;102817.94;4950666;28;20069;-71
2024/01/25 03:12:04;;;;;;;11.52;3.28;;;;;;;18.10;40.72;102809.50;4950465;29;20421;-71
2024/01/25 03:14:29;;;;;;;11.10;3.10;;;;;;;18.17;40.86;102817.94;4950544;28;20197;-71
2024/01/25 03:16:54;;;;;;;12.82;3.28;;;;;;;18.16;41.06;102818.88;4951038;29;20039;-70
2024/01/25 03:19:20;;;;;;;11.73;3.22;;;;;;;18.02;40.86;102798.44;4950889;29;20038;-69
2024/01/25 03:21:45;;;;;;;12.87;3.80;;;;;;;18.13;40.66;102817.25;4951291;29;20035;-71
2024/01/25 03:24:10;;;;;;;10.30;3.10;;;;;;;18.08;40.69;102797.28;4950658;29;20654;-69
2024/01/25 03:26:36;;;;;;;12.30;3.28;;;;;;;18.07;41.13;102804.38;4950559;29;20063;-70
2024/01/25 03:29:01;;;;;;;11.35;3.45;;;;;;;18.03;40.86;102800.16;4950012;29;20039;-70
2024/01/25 03:31:26;;;;;;;11.60;3.22;;;;;;;18.11;40.77;102818.25;4950289;28;20031;-70
2024/01/25 03:33:52;;;;;;;13.30;3.22;;;;;;;18.08;40.89;102810.47;4950307;29;20082;-70
2024/01/25 03:36:17;;;;;;;9.82;3.00;;;;;;;18.14;40.93;102828.66;4950219;28;20051;-71
2024/01/25 03:38:43;;;;;;;9.65;3.03;;;;;;;18.11;40.85;102827.00;4950276;29;20031;-69
2024/01/25 03:41:09;;;;;;;11.40;3.85;;;;;;;18.15;40.94;102832.13;4950320;29;20408;-70
2024/01/25 03:43:35;;;;;;;9.75;2.90;;;;;;;18.06;40.72;102821.13;4949913;28;20035;-69
2024/01/25 03:46:00;;;;;;;10.00;3.00;;;;;;;18.05;41.09;102822.03;4950155;28;20121;-69
2024/01/25 03:48:26;;;;;;;11.88;3.28;;;;;;;18.03;40.75;102821.25;4950106;29;20453;-70
2024/01/25 03:50:51;;;;;;;10.10;2.97;;;;;;;18.05;40.94;102822.03;4950226;29;20031;-72
2024/01/25 03:53:16;;;;;;;8.02;2.60;;;;;;;18.00;40.79;102813.50;4950436;29;20027;-70
2024/01/25 03:55:41;;;;;;;11.23;3.10;;;;;;;18.00;40.81;102816.13;4950191;29;20050;-71
2024/01/25 03:58:07;;;;;;;10.48;3.30;;;;;;;18.03;40.50;102825.69;4949879;29;20027;-71
2024/01/25 04:00:32;;;;;;;10.27;3.08;;;;;;;18.01;40.60;102827.53;4950010;29;20358;-71
2024/01/25 04:02:57;;;;;;;12.52;2.90;;;;;;;18.08;40.70;102834.22;4948101;29;20134;-69
2024/01/25 04:05:23;;;;;;;9.98;2.80;;;;;;;18.08;40.73;102829.81;4950054;29;20074;-69
2024/01/25 04:07:48;;;;;;;8.98;2.63;;;;;;;18.09;40.77;102834.16;4949468;29;20391;-71
2024/01/25 04:10:13;;;;;;;10.13;2.85;;;;;;;17.97;40.64;102826.84;4949948;29;20425;-69
2024/01/25 04:12:39;;;;;;;9.02;3.25;;;;;;;18.07;40.43;102848.34;4949552;28;20038;-73
2024/01/25 04:15:05;;;;;;;9.25;3.03;;;;;;;18.09;40.49;102846.50;4949960;29;20375;-69
2024/01/25 04:17:30;;;;;;;7.18;2.50;;;;;;;18.06;40.60;102841.38;4949168;28;20054;-71
2024/01/25 04:19:56;;;;;;;10.45;2.72;;;;;;;18.05;40.58;102850.22;4949716;29;20035;-70
2024/01/25 04:22:21;;;;;;;10.73;3.03;;;;;;;17.92;40.26;102840.25;4949631;29;20034;-71
2024/01/25 04:24:48;;;;;;;9.98;2.53;;;;;;;18.06;40.46;102862.50;4949097;29;20456;-71
2024/01/25 04:27:14;;;;;;;9.48;3.17;;;;;;;18.02;40.49;102853.00;4949198;29;20042;-69
2024/01/25 04:29:41;;;;;;;7.68;2.60;;;;;;;18.02;40.46;102842.44;4949434;28;20034;-69
2024/01/25 04:32:06;;;;;;;9.45;3.30;;;;;;;17.98;40.22;102835.63;4948831;28;20464;-72
2024/01/25 04:34:32;;;;;;;11.15;3.17;;;;;;;17.89;40.16;102826.38;4949968;29;20046;-71
2024/01/25 04:36:57;;;;;;;9.40;2.78;;;;;;;17.89;40.25;102829.00;4949499;29;20055;-70
2024/01/25 04:39:22;;;;;;;10.30;3.20;;;;;;;18.00;40.04;102845.16;4949195;29;20070;-71
2024/01/25 04:41:48;;;;;;;11.95;2.90;;;;;;;17.89;40.10;102818.47;4949357;29;20383;-71
2024/01/25 04:44:13;;;;;;;11.13;3.05;;;;;;;17.90;40.16;102818.38;4948683;28;20031;-71
2024/01/25 04:46:38;;;;;;;8.82;2.88;;;;;;;17.87;39.97;102809.75;4948511;29;20046;-71
2024/01/25 04:49:04;;;;;;;11.52;2.88;;;;;;;17.93;40.02;102822.66;4949172;29;20027;-71
2024/01/25 04:51:29;;;;;;;11.52;2.72;;;;;;;17.86;39.85;102816.78;4949030;28;20035;-69
2024/01/25 04:53:54;;;;;;;10.10;3.03;;;;;;;17.90;40.08;102825.44;4949095;29;20034;-70
2024/01/25 04:56:19;;;;;;;9.25;2.72;;;;;;;17.88;39.99;102822.00;4948563;29;20038;-71
2024/01/25 04:58:45;;;;;;;11.38;3.25;;;;;;;17.87;40.09;102823.78;4949179;29;20747;-69
2024/01/25 05:01:11;;;;;;;8.48;2.75;;;;;;;17.94;40.07;102837.53;4948471;29;20035;-69
2024/01/25 05:03:36;;;;;;;10.43;2.75;;;;;;;17.94;39.86;102834.91;4946997;28;20039;-69
2024/01/25 05:06:02;;;;;;;9.18;2.67;;;;;;;17.92;40.05;102845.53;4948419;29;20043;-70
2024/01/25 05:08:27;;;;;;;9.13;2.67;;;;;;;17.94;40.17;102848.97;4948836;28;20077;-70
2024/01/25 05:10:52;;;;;;;9.65;2.50;;;;;;;17.86;40.12;102831.75;4948689;29;20027;-69
2024/01/25 05:13:18;;;;;;;12.80;3.00;;;;;;;17.90;40.10;102828.94;4948569;29;20039;-69
2024/01/25 05:15:43;;;;;;;12.25;3.05;;;;;;;17.93;39.97;102835.84;4948742;28;20027;-72
2024/01/25 05:18:09;;;;;;;8.75;2.83;;;;;;;17.83;39.90;102810.81;4948512;29;20031;-71
2024/01/25 05:20:36;;;;;;;10.20;3.08;;;;;;;17.92;39.90;102828.84;4948314;29;20031;-70
2024/01/25 05:23:03;;;;;;;9.43;2.83;;;;;;;17.84;40.00;102807.25;4948284;29;20113;-71
2024/01/25 05:25:29;;;;;;;11.82;3.05;;;;;;;17.87;39.93;102809.75;4948917;28;20039;-71
2024/01/25 05:27:55;;;;;;;8.52;2.95;;;;;;;17.87;39.79;102815.88;4948069;28;20043;-70
2024/01/25 05:30:24;;;;;;;11.18;3.00;;;;;;;17.87;39.95;102825.56;4948740;28;20031;-72
2024/01/25 05:32:50;;;;;;;9.27;2.70;;;;;;;17.85;39.84;102830.91;4948947;28;20035;-70
2024/01/25 05:35:16;;;;;;;11.75;2.80;;;;;;;17.88;39.79;102840.47;4948341;28;20058;-72
2024/01/25 05:37:42;;;;;;;9.45;2.38;;;;;;;17.78;39.75;102829.50;4947916;28;20031;-71
2024/01/25 05:40:09;;;;;;;10.30;3.42;;;;;;;17.85;39.92;102832.69;4947916;28;20093;-70
2024/01/25 05:42:34;;;;;;;11.13;3.25;;;;;;;17.75;39.66;102819.97;4947753;28;20035;-71
2024/01/25 05:44:59;;;;;;;7.32;2.58;;;;;;;17.74;39.60;102820.03;4948270;29;20045;-72
2024/01/25 05:47:25;;;;;;;10.10;2.78;;;;;;;17.83;39.37;102837.19;4947311;29;20522;-71
2024/01/25 05:49:51;;;;;;;9.60;2.63;;;;;;;17.71;39.62;102815.75;4947712;29;20038;-70
2024/01/25 05:52:16;;;;;;;9.80;2.67;;;;;;;17.73;39.80;102823.59;4947366;28;20027;-72
2024/01/25 05:54:41;;;;;;;8.52;2.88;;;;;;;17.70;39.52;102821.09;4947578;28;20042;-71
2024/01/25 05:57:07;;;;;;;9.48;3.17;;;;;;;17.72;39.64;102838.56;4950349;29;20067;-69
2024/01/25 05:59:32;;;;;;;7.78;2.67;;;;;;;17.82;39.94;102856.59;4952067;29;20081;-72
2024/01/25 06:01:57;;;;;;;10.02;3.22;;;;;;;17.80;39.83;102851.41;4949926;29;20532;-72
2024/01/25 06:04:22;;;;;;;9.02;2.75;;;;;;;17.70;40.10;102827.22;4951816;29;20035;-72
2024/01/25 06:06:48;;;;;;;9.77;2.67;;;;;;;17.86;39.98;102851.06;4951468;29;20031;-72
2024/01/25 06:09:16;;;;;;;7.63;2.40;;;;;;;17.84;40.31;102841.53;4951596;29;20265;-70
2024/01/25 06:11:41;;;;;;;6.72;2.38;;;;;;;17.79;40.36;102828.56;4951703;29;20027;-71
2024/01/25 06:14:07;;;;;;;7.80;2.50;;;;;;;17.89;40.33;102844.84;4952120;29;20031;-72
2024/01/25 06:16:33;;;;;;;13.32;3.28;;;;;;;17.81;40.33;102828.50;4949878;28;20399;-69
2024/01/25 06:19:00;;;;;;;6.22;1.80;;;;;;;17.83;40.87;102830.16;4950620;29;20476;-71
2024/01/25 06:21:25;;;;;;;6.45;2.08;;;;;;;18.00;40.82;102855.72;4951761;29;20420;-71
2024/01/25 06:23:51;;;;;;;8.18;2.65;;;;;;;17.98;40.70;102849.66;4951885;28;20032;-71
2024/01/25 06:26:16;;;;;;;9.70;3.00;;;;;;;18.04;40.40;102859.91;4951059;28;20082;-72
2024/01/25 06:28:41;;;;;;;7.30;2.30;;;;;;;17.94;40.63;102846.34;4951029;29;20031;-72
2024/01/25 06:31:07;;;;;;;7.43;2.28;;;;;;;17.98;40.69;102847.03;4950407;29;20027;-72
2024/01/25 06:33:32;;;;;;;9.82;2.38;;;;;;;18.00;40.38;102849.59;4950998;28;20027;-71
2024/01/25 06:35:58;;;;;;;7.88;2.13;;;;;;;18.06;40.54;102857.22;4951138;29;20074;-72
2024/01/25 06:38:23;;;;;;;8.38;2.70;;;;;;;18.11;40.62;102858.66;4950775;28;20046;-72
2024/01/25 06:40:48;;;;;;;9.30;2.60;;;;;;;18.21;40.45;102860.88;4951103;29;20135;-71
2024/01/25 06:43:14;;;;;;;11.32;2.72;;;;;;;18.23;40.22;102859.00;4951000;29;20475;-70
2024/01/25 06:45:40;;;;;;;8.02;2.15;;;;;;;18.17;40.43;102844.34;4950901;29;20392;-71
2024/01/25 06:48:06;;;;;;;8.02;2.50;;;;;;;18.16;40.47;102841.78;4951095;29;20123;-72
2024/01/25 06:50:32;;;;;;;7.78;2.42;;;;;;;18.30;40.46;102869.16;4951238;28;20046;-70
2024/01/25 06:52:57;;;;;;;8.65;2.30;;;;;;;18.19;40.44;102839.81;4951018;29;20035;-71
2024/01/25 06:55:22;;;;;;;5.68;2.10;;;;;;;18.25;40.30;102844.81;4951310;29;20031;-72
2024/01/25 06:57:48;;;;;;;10.25;2.88;;;;;;;18.30;40.33;102855.13;4950975;29;20468;-72
2024/01/25 07:00:15;;;;;;;6.65;1.88;;;;;;;18.23;40.35;102848.44;4950476;28;20800;-73
2024/01/25 07:02:42;;;;;;;7.40;2.15;;;;;;;18.37;40.47;102880.28;4948766;28;20033;-70
2024/01/25 07:05:07;;;;;;;10.35;2.85;;;;;;;18.34;40.25;102872.53;4948395;29;20031;-72
2024/01/25 07:07:33;;;;;;;6.82;2.28;;;;;;;18.36;40.30;102868.03;4949707;28;20039;-72
2024/01/25 07:09:58;;;;;;;7.57;2.40;;;;;;;18.35;40.20;102874.22;4950384;29;20031;-72
2024/01/25 07:12:24;;;;;;;7.82;2.72;;;;;;;18.24;40.09;102847.50;4950220;28;20031;-71
2024/01/25 07:14:49;;;;;;;6.80;2.30;;;;;;;18.24;40.27;102840.44;4951014;29;20039;-70
2024/01/25 07:17:14;;;;;;;7.00;2.33;;;;;;;18.27;40.33;102850.00;4950507;29;20039;-72
2024/01/25 07:19:39;;;;;;;8.18;2.50;;;;;;;18.24;40.13;102844.88;4951116;29;20037;-72
2024/01/25 07:22:05;;;;;;;10.30;2.55;;;;;;;18.26;40.39;102861.47;4950505;29;20042;-71
2024/01/25 07:24:31;;;;;;;6.25;2.03;;;;;;;18.25;40.20;102851.88;4950825;29;20059;-72
2024/01/25 07:26:56;;;;;;;8.65;2.47;;;;;;;18.37;40.37;102874.16;4950419;28;20039;-71
2024/01/25 07:29:21;;;;;;;6.53;2.00;;;;;;;18.36;40.21;102881.22;4950358;29;20451;-69
2024/01/25 07:31:46;;;;;;;7.35;2.05;;;;;;;18.26;40.21;102862.34;4949844;29;20089;-71
2024/01/25 07:34:12;;;;;;;8.77;2.53;;;;;;;18.35;40.09;102884.78;4949847;29;20054;-69
2024/01/25 07:36:37;;;;;;;7.75;2.22;;;;;;;18.26;40.08;102858.84;4949852;29;20771;-70
2024/01/25 07:39:03;;;;;;;6.88;2.08;;;;;;;18.22;40.19;102866.06;4949989;29;20043;-70
2024/01/25 07:41:28;;;;;;;7.55;2.33;;;;;;;18.34;40.22;102880.44;4950175;29;20027;-72
2024/01/25 07:43:55;;;;;;;8.02;2.47;;;;;;;18.34;39.88;102877.81;4950166;29;20380;-72
2024/01/25 07:46:21;;;;;;;8.73;2.45;;;;;;;18.31;40.15;102873.53;4949979;29;20110;-71
2024/01/25 07:48:46;;;;;;;8.43;2.72;;;;;;;18.29;39.99;102878.03;4950453;28;20035;-71
2024/01/25 07:51:13;;;;;;;7.68;2.45;;;;;;;18.22;39.66;102859.94;4950027;29;20047;-69
2024/01/25 07:53:38;;;;;;;8.68;2.30;;;;;;;18.31;39.94;102870.88;4949887;28;20063;-69
2024/01/25 07:56:06;;;;;;;8.40;2.90;;;;;;;18.34;39.69;102874.28;4949903;29;20070;-71
2024/01/25 07:58:31;;;;;;;8.25;3.03;;;;;;;18.24;39.27;102858.91;4950227;28;20027;-68
2024/01/25 08:00:57;;;;;;;8.60;3.03;;;;;;;18.29;39.35;102866.59;4950009;29;20037;-71
2024/01/25 08:03:22;;;;;;;8.57;2.45;;;;;;;18.33;39.19;102878.72;4947659;29;20402;-70
2024/01/25 08:05:47;;;;;;;10.43;2.88;;;;;;;18.34;39.25;102888.38;4949100;29;20174;-71
2024/01/25 08:08:12;;;;;;;8.27;2.50;;;;;;;18.21;39.26;102868.78;4949742;29;20038;-69
2024/01/25 08:10:38;;;;;;;9.00;2.67;;;;;;;18.19;39.35;102875.94;4949983;29;20491;-70
2024/01/25 08:13:03;;;;;;;7.85;2.80;;;;;;;18.25;39.83;102886.19;4949759;29;20031;-68
2024/01/25 08:15:29;;;;;;;9.18;2.90;;;;;;;18.31;39.87;102899.09;4949557;29;20480;-72
2024/01/25 08:17:54;;;;;;;9.18;2.92;;;;;;;18.19;39.87;102878.56;4949497;28;20062;-71
2024/01/25 08:20:19;;;;;;;8.52;2.70;;;;;;;18.23;40.07;102883.63;4949428;29;20035;-72
2024/01/25 08:22:45;;;;;;;8.45;3.13;;;;;;;18.22;40.18;102888.97;4949376;28;20054;-69
2024/01/25 08:25:13;;;;;;;8.02;2.60;;;;;;;18.24;40.17;102887.09;4949366;29;20038;-71
2024/01/25 08:27:39;;;;;;;9.32;2.67;;;;;;;18.17;39.91;102859.31;4949399;29;20031;-71
2024/01/25 08:30:05;;;;;;;8.20;2.85;;;;;;;18.32;40.30;102858.53;4949347;28;20130;-70
2024/01/25 08:32:30;;;;;;;9.13;2.80;;;;;;;18.28;40.19;102857.84;4948501;28;20035;-70
2024/01/25 08:34:55;;;;;;;8.77;2.38;;;;;;;18.24;40.50;102842.25;4945964;29;20070;-72
2024/01/25 08:37:21;;;;;;;6.80;2.40;;;;;;;18.22;40.39;102844.09;4946804;29;20035;-73
2024/01/25 08:39:49;;;;;;;6.60;2.35;;;;;;;18.23;40.58;102846.66;4949306;29;20057;-74
2024/01/25 08:42:15;;;;;;;11.00;2.92;;;;;;;18.39;40.60;102883.72;4948868;29;20031;-70
2024/01/25 08:44:44;;;;;;;9.45;2.50;;;;;;;18.37;40.70;102890.81;4945752;28;20134;-73
2024/01/25 08:47:09;;;;;;;10.02;3.40;;;;;;;18.37;40.84;102901.38;4949050;29;20035;-70
2024/01/25 08:49:38;;;;;;;8.35;2.50;;;;;;;18.39;40.87;102896.91;4945526;29;20392;-70
2024/01/25 08:52:05;;;;;;;8.80;2.65;;;;;;;18.39;41.02;102907.47;4949034;28;20488;-70
2024/01/25 08:54:30;;;;;;;6.82;2.33;;;;;;;18.28;40.90;102886.03;4948800;28;20027;-71
2024/01/25 08:56:55;;;;;;;8.18;2.75;;;;;;;18.29;41.21;102874.53;4948829;29;20031;-72
2024/01/25 08:59:21;;;;;;;6.97;2.80;;;;;;;18.28;41.17;102867.56;4948918;29;20041;-71
2024/01/25 09:01:46;;;;;;;7.75;2.35;;;;;;;18.35;41.11;102878.66;4943191;29;20035;-71
2024/01/25 09:04:11;;;;;;;8.15;3.00;;;;;;;18.41;41.16;102894.19;4947322;29;20039;-71
2024/01/25 09:06:36;;;;;;;8.27;2.90;;;;;;;18.39;41.29;102889.00;4948167;29;20038;-72
2024/01/25 09:09:03;;;;;;;7.55;2.80;;;;;;;18.29;41.06;102875.41;4948424;29;20054;-74
2024/01/25 09:11:28;;;;;;;6.38;2.35;;;;;;;18.39;41.35;102893.38;4948528;28;20066;-72
2024/01/25 09:13:54;;;;;;;8.88;2.60;;;;;;;18.31;41.55;102880.59;4948320;29;20058;-72
2024/01/25 09:16:19;;;;;;;8.27;2.88;;;;;;;18.44;41.54;102912.53;4948964;29;20118;-71
2024/01/25 09:18:45;;;;;;;7.75;2.83;;;;;;;18.35;41.55;102895.34;4948206;29;20468;-73
2024/01/25 09:21:10;;;;;;;7.22;2.50;;;;;;;18.42;41.51;102909.09;4948669;28;20110;-71
2024/01/25 09:23:36;;;;;;;9.95;3.15;;;;;;;18.43;41.46;102902.88;4948016;28;20381;-71
2024/01/25 09:26:01;;;;;;;8.77;2.80;;;;;;;18.42;41.48;102902.03;4948550;29;20031;-69
2024/01/25 09:28:26;;;;;;;8.40;2.78;;;;;;;18.31;41.62;102877.97;4948093;29;20535;-73
2024/01/25 09:30:52;;;;;;;7.28;3.22;;;;;;;18.33;41.38;102884.00;4947994;29;20042;-74
2024/01/25 09:33:18;;;;;;;6.03;2.33;;;;;;;18.39;41.76;102896.03;4947895;29;20074;-70
2024/01/25 09:35:46;;;;;;;9.40;2.70;;;;;;;18.39;42.13;102888.13;4941822;29;20098;-71
2024/01/25 09:38:12;;;;;;;10.65;3.20;;;;;;;18.50;42.55;102909.56;4945398;28;20570;-69
2024/01/25 09:40:38;;;;;;;11.52;3.50;;;;;;;18.37;43.36;102874.16;4945672;29;20118;-69
2024/01/25 09:43:03;;;;;;;10.25;3.42;;;;;;;18.50;43.67;102888.44;4946868;28;20117;-70
2024/01/25 09:45:31;;;;;;;10.07;4.28;;;;;;;18.53;43.68;102898.00;4947177;28;20110;-72
2024/01/25 09:47:56;;;;;;;12.00;3.88;;;;;;;18.54;43.68;102913.75;4945199;29;20504;-69
2024/01/25 09:50:21;;;;;;;10.15;3.58;;;;;;;18.41;43.78;102889.75;4947271;29;20035;-70
2024/01/25 09:52:54;;;;;;;10.23;3.80;;;;;;;18.54;43.77;102905.84;4946193;29;20527;-70
2024/01/25 09:55:24;;;;;;;9.40;3.58;;;;;;;18.46;43.79;102892.16;4947373;28;20035;-71
2024/01/25 09:57:52;;;;;;;11.25;3.92;;;;;;;18.59;43.71;102900.31;4946525;28;20039;-69
2024/01/25 10:00:18;;;;;;;10.00;3.28;;;;;;;18.63;43.58;102900.09;4942633;28;20595;-70
2024/01/25 10:02:44;;;;;;;9.60;3.33;;;;;;;18.56;43.74;102874.91;4944843;29;20038;-71
2024/01/25 10:05:09;;;;;;;9.25;3.13;;;;;;;18.68;43.70;102899.84;4947242;29;20078;-70
2024/01/25 10:07:36;;;;;;;10.73;4.18;;;;;;;18.67;43.80;102888.44;4947349;29;20031;-70
2024/01/25 10:10:01;;;;;;;9.77;3.17;;;;;;;18.67;43.80;102887.56;4947748;28;20031;-72
2024/01/25 10:12:26;;;;;;;11.43;4.10;;;;;;;18.70;43.60;102887.41;4947559;29;20436;-71
2024/01/25 10:14:52;;;;;;;9.85;3.70;;;;;;;18.55;43.81;102857.38;4946785;29;20035;-72
2024/01/25 10:17:17;;;;;;;8.57;3.70;;;;;;;18.58;43.77;102861.63;4946414;29;20436;-72
2024/01/25 10:19:44;;;;;;;9.93;3.13;;;;;;;18.72;43.71;102885.53;4946816;29;20067;-69
2024/01/25 10:22:11;;;;;;;9.10;3.80;;;;;;;18.70;43.73;102874.22;4945692;28;20319;-69
2024/01/25 10:24:38;;;;;;;8.48;3.53;;;;;;;18.73;43.86;102878.50;4946717;28;20117;-70
2024/01/25 10:27:04;;;;;;;9.55;4.00;;;;;;;18.71;43.90;102877.69;4946497;28;20031;-70
2024/01/25 10:29:29;;;;;;;11.80;4.10;;;;;;;18.70;43.82;102874.22;4942199;28;20077;-72
2024/01/25 10:31:54;;;;;;;10.77;3.83;;;;;;;18.71;44.03;102873.28;4946064;29;20073;-71
2024/01/25 10:34:20;;;;;;;10.20;4.30;;;;;;;18.66;44.06;102852.41;4947444;29;20046;-72
2024/01/25 10:36:46;;;;;;;8.23;3.25;;;;;;;18.73;44.05;102854.72;4946133;28;20058;-72
2024/01/25 10:39:14;;;;;;;10.55;3.28;;;;;;;18.73;44.08;102854.72;4947823;29;20050;-71
2024/01/25 10:41:40;;;;;;;10.93;3.70;;;;;;;18.60;44.06;102828.94;4948037;28;20388;-72
2024/01/25 10:44:06;;;;;;;10.63;3.28;;;;;;;18.72;43.96;102845.06;4951011;29;20035;-71
2024/01/25 10:46:32;;;;;;;10.98;3.65;;;;;;;18.63;43.91;102822.66;4950824;28;20062;-70
2024/01/25 10:49:01;;;;;;;10.43;3.13;;;;;;;18.58;43.58;102817.63;4950207;28;20387;-70
2024/01/25 10:51:29;;;;;;;8.70;3.30;;;;;;;18.56;43.70;102808.91;4949464;29;20047;-70
2024/01/25 10:53:54;;;;;;;9.60;3.60;;;;;;;18.61;43.77;102811.31;4949676;28;20038;-71
2024/01/25 10:56:20;;;;;;;9.15;3.55;;;;;;;18.65;43.86;102837.47;4950507;28;20027;-71
2024/01/25 10:58:46;;;;;;;9.57;3.40;;;;;;;18.52;43.55;102824.97;4949331;29;20110;-72
2024/01/25 11:01:12;;;;;;;10.48;3.22;;;;;;;18.60;43.54;102825.47;4950893;28;20039;-70
2024/01/25 11:03:40;;;;;;;9.45;3.33;;;;;;;18.62;43.80;102826.22;4948642;28;20483;-71
2024/01/25 11:06:10;;;;;;;7.75;2.78;;;;;;;18.59;43.57;102823.75;4950358;28;20121;-71
2024/01/25 11:08:39;;;;;;;9.90;3.35;;;;;;;18.59;43.57;102823.75;4950986;28;20110;-70
2024/01/25 11:11:10;;;;;;;10.70;3.47;;;;;;;18.55;43.63;102801.06;4950149;28;20484;-70
2024/01/25 11:13:38;;;;;;;8.13;3.00;;;;;;;18.55;43.68;102796.66;4950600;29;20035;-69